createdAt,value
2023-01-01T00:00:53.596Z,97.79
2023-01-01T00:01:56.806Z,97.61
2023-01-01T00:02:59.758Z,97.60
2023-01-01T00:04:03.125Z,97.73
2023-01-01T00:05:09.370Z,97.78
2023-01-01T00:06:14.798Z,97.82
2023-01-01T00:07:20.360Z,97.82
2023-01-01T00:08:25.080Z,97.79
2023-01-01T00:09:46.325Z,97.78
2023-01-01T00:10:49.244Z,97.77
2023-01-01T00:11:52.500Z,97.78
2023-01-01T00:12:58.946Z,97.69
2023-01-01T00:14:05.591Z,97.44
2023-01-01T00:15:11.810Z,97.49
2023-01-01T00:16:15.580Z,97.48
2023-01-01T00:17:22.131Z,97.52
2023-01-01T00:18:24.959Z,97.45
2023-01-01T00:19:28.306Z,97.47
2023-01-01T00:20:35.273Z,97.65
2023-01-01T00:21:39.985Z,97.88
2023-01-01T00:22:58.349Z,97.87
2023-01-01T00:24:02.357Z,97.63
2023-01-01T00:25:06.293Z,97.58
2023-01-01T00:26:14.379Z,97.47
2023-01-01T00:27:21.380Z,97.36
2023-01-01T00:28:24.436Z,97.42
2023-01-01T00:29:27.396Z,97.49
2023-01-01T00:31:37.964Z,97.51
2023-01-01T00:32:40.923Z,97.55
2023-01-01T00:33:44.992Z,97.54
2023-01-01T00:34:48.093Z,97.51
2023-01-01T00:35:51.024Z,97.31
2023-01-01T00:36:54.138Z,97.29
2023-01-01T00:37:57.294Z,97.37
2023-01-01T00:39:02.697Z,97.42
2023-01-01T00:40:06.099Z,97.52
2023-01-01T00:41:09.541Z,97.59
2023-01-01T00:42:12.504Z,97.60
2023-01-01T00:43:15.435Z,97.62
2023-01-01T00:44:18.577Z,97.67
2023-01-01T00:45:22.884Z,97.60
2023-01-01T00:46:26.323Z,97.48
2023-01-01T00:47:29.389Z,97.42
2023-01-01T00:48:32.809Z,97.33
2023-01-01T00:49:35.892Z,97.04
2023-01-01T00:50:38.839Z,97.17
2023-01-01T00:51:41.708Z,97.31
2023-01-01T00:52:44.600Z,97.21
2023-01-01T00:53:47.680Z,97.21
2023-01-01T00:54:50.896Z,97.34
2023-01-01T00:55:56.642Z,97.21
2023-01-01T00:56:59.710Z,97.20
2023-01-01T00:58:02.672Z,97.01
2023-01-01T00:59:06.378Z,97.02
2023-01-01T01:00:10.455Z,97.03
2023-01-01T01:01:13.988Z,97.20
2023-01-01T01:02:17.190Z,97.09
2023-01-01T01:03:29.830Z,96.99
2023-01-01T01:04:32.884Z,96.82
2023-01-01T01:05:37.871Z,96.79
2023-01-01T01:06:41.075Z,96.91
2023-01-01T01:07:44.425Z,96.92
2023-01-01T01:08:47.731Z,96.92
2023-01-01T01:09:50.994Z,96.85
2023-01-01T01:10:54.249Z,96.85
2023-01-01T01:12:18.124Z,96.93
2023-01-01T01:13:21.648Z,96.83
2023-01-01T01:14:24.593Z,96.67
2023-01-01T01:15:27.559Z,96.64
2023-01-01T01:16:33.525Z,96.72
2023-01-01T01:17:36.964Z,96.70
2023-01-01T01:18:43.375Z,96.77
2023-01-01T01:19:47.821Z,96.87
2023-01-01T01:20:52.659Z,96.93
2023-01-01T01:21:59.407Z,96.92
2023-01-01T01:23:02.296Z,96.88
2023-01-01T01:24:05.342Z,96.89
2023-01-01T01:25:12.398Z,96.94
2023-01-01T01:26:18.779Z,96.96
2023-01-01T01:27:21.796Z,96.97
2023-01-01T01:28:24.698Z,97.03
2023-01-01T01:29:27.879Z,97.09
2023-01-01T01:30:31.187Z,97.17
2023-01-01T01:31:35.225Z,97.23
2023-01-01T01:32:38.139Z,97.21
2023-01-01T01:33:43.679Z,97.17
2023-01-01T01:34:47.210Z,97.22
2023-01-01T01:35:53.248Z,97.34
2023-01-01T01:36:56.636Z,97.41
2023-01-01T01:37:59.957Z,97.48
2023-01-01T01:39:03.031Z,97.57
2023-01-01T01:40:06.749Z,97.64
2023-01-01T01:41:25.742Z,97.60
2023-01-01T01:42:30.539Z,97.53
2023-01-01T01:43:37.449Z,97.53
2023-01-01T01:44:46.795Z,97.49
2023-01-01T01:45:50.475Z,97.58
2023-01-01T01:46:57.406Z,97.61
2023-01-01T01:48:01.159Z,97.52
2023-01-01T01:49:13.210Z,97.42
2023-01-01T01:50:22.823Z,97.46
2023-01-01T01:51:35.873Z,97.41
2023-01-01T01:52:42.780Z,97.21
2023-01-01T01:53:54.938Z,97.33
2023-01-01T01:54:58.359Z,97.50
2023-01-01T01:56:06.121Z,97.65
2023-01-01T01:57:12.965Z,97.76
2023-01-01T01:58:17.366Z,97.86
2023-01-01T01:59:23.125Z,97.92
2023-01-01T02:00:29.600Z,97.86
2023-01-01T02:01:32.818Z,97.95
2023-01-01T02:02:48.750Z,98.03
2023-01-01T02:04:00.272Z,98.16
2023-01-01T02:05:05.136Z,98.27
2023-01-01T02:06:08.767Z,98.28
2023-01-01T02:07:14.585Z,98.31
2023-01-01T02:08:19.484Z,98.24
2023-01-01T02:09:22.750Z,98.36
2023-01-01T02:10:27.701Z,98.45
2023-01-01T02:11:31.678Z,98.59
2023-01-01T02:12:34.824Z,98.64
2023-01-01T02:13:37.932Z,98.64
2023-01-01T02:14:40.910Z,98.69
2023-01-01T02:15:53.173Z,98.80
2023-01-01T02:17:08.124Z,98.74
2023-01-01T02:18:14.921Z,98.71
2023-01-01T02:19:38.315Z,98.81
2023-01-01T02:20:48.334Z,98.89
2023-01-01T02:22:03.830Z,98.71
2023-01-01T02:23:29.114Z,98.44
2023-01-01T02:25:05.103Z,98.54
2023-01-01T02:26:17.712Z,98.72
2023-01-01T02:27:48.543Z,98.68
2023-01-01T02:29:03.426Z,98.74
2023-01-01T02:30:09.157Z,98.95
2023-01-01T02:31:23.117Z,99.12
2023-01-01T02:32:34.853Z,99.19
2023-01-01T02:33:41.420Z,99.13
2023-01-01T02:34:58.940Z,99.12
2023-01-01T02:36:04.971Z,99.18
2023-01-01T02:37:11.285Z,99.17
2023-01-01T02:38:41.752Z,99.30
2023-01-01T02:39:59.949Z,99.44
2023-01-01T02:41:10.954Z,99.38
2023-01-01T02:42:18.431Z,99.25
2023-01-01T02:43:24.773Z,99.07
2023-01-01T02:44:30.949Z,99.14
2023-01-01T02:45:34.328Z,99.25
2023-01-01T02:46:37.611Z,99.33
2023-01-01T02:47:41.007Z,99.34
2023-01-01T02:48:49.645Z,99.42
2023-01-01T02:50:15.845Z,99.41
2023-01-01T02:51:42.595Z,99.14
2023-01-01T02:53:17.680Z,98.98
2023-01-01T02:54:24.408Z,99.23
2023-01-01T02:55:54.261Z,99.35
2023-01-01T02:57:10.328Z,99.04
2023-01-01T02:58:59.838Z,99.01
2023-01-01T03:00:19.978Z,98.98
2023-01-01T03:01:32.294Z,99.00
2023-01-01T03:02:57.197Z,98.98
2023-01-01T03:04:22.883Z,98.84
2023-01-01T03:06:00.142Z,99.02
2023-01-01T03:07:45.458Z,98.79
2023-01-01T03:09:45.516Z,98.75
2023-01-01T03:11:09.347Z,98.92
2023-01-01T03:12:18.339Z,98.90
2023-01-01T03:13:53.075Z,98.89
2023-01-01T03:15:21.004Z,98.85
2023-01-01T03:16:45.291Z,98.80
2023-01-01T03:17:53.856Z,98.61
2023-01-01T03:19:11.960Z,98.29
2023-01-01T03:20:22.460Z,98.38
2023-01-01T03:21:25.817Z,98.44
2023-01-01T03:23:50.025Z,98.20
2023-01-01T03:24:59.065Z,98.03
2023-01-01T03:26:08.414Z,97.49
2023-01-01T03:27:26.661Z,97.55
2023-01-01T03:28:36.234Z,97.75
2023-01-01T03:29:42.660Z,97.57
2023-01-01T03:30:48.109Z,97.64
2023-01-01T03:31:54.739Z,97.62
2023-01-01T03:33:04.479Z,97.68
2023-01-01T03:34:14.030Z,97.58
2023-01-01T03:35:20.033Z,97.53
2023-01-01T03:36:28.792Z,97.45
2023-01-01T03:37:33.458Z,97.39
2023-01-01T03:38:43.756Z,97.40
2023-01-01T03:39:53.390Z,97.35
2023-01-01T03:41:04.362Z,97.08
2023-01-01T03:42:20.471Z,97.08
2023-01-01T03:43:40.718Z,96.97
2023-01-01T03:44:43.622Z,97.05
2023-01-01T03:45:51.405Z,96.98
2023-01-01T03:46:54.819Z,97.18
2023-01-01T03:47:58.995Z,97.22
2023-01-01T03:49:04.569Z,97.28
2023-01-01T03:50:11.452Z,97.44
2023-01-01T03:51:29.584Z,97.47
2023-01-01T03:53:07.544Z,97.44
2023-01-01T03:54:35.927Z,97.32
2023-01-01T03:55:46.117Z,97.31
2023-01-01T03:56:56.508Z,97.31
2023-01-01T03:58:06.478Z,97.33
2023-01-01T03:59:23.091Z,97.29
2023-01-01T04:00:34.472Z,97.10
2023-01-01T04:01:43.726Z,97.15
2023-01-01T04:02:57.057Z,97.06
2023-01-01T04:04:01.785Z,97.04
2023-01-01T04:05:07.768Z,97.07
2023-01-01T04:06:12.324Z,97.11
2023-01-01T04:07:16.239Z,96.98
2023-01-01T04:08:19.995Z,96.85
2023-01-01T04:09:30.798Z,96.96
2023-01-01T04:10:36.263Z,96.78
2023-01-01T04:12:04.451Z,96.44
2023-01-01T04:13:11.626Z,96.37
2023-01-01T04:14:14.652Z,96.10
2023-01-01T04:15:19.663Z,96.16
2023-01-01T04:16:22.887Z,96.25
2023-01-01T04:17:26.227Z,96.25
2023-01-01T04:18:29.331Z,96.18
2023-01-01T04:19:33.311Z,96.21
2023-01-01T04:20:36.342Z,96.06
2023-01-01T04:21:39.523Z,96.14
2023-01-01T04:22:42.533Z,96.26
2023-01-01T04:23:45.564Z,96.17
2023-01-01T04:24:48.628Z,95.97
2023-01-01T04:25:51.592Z,95.92
2023-01-01T04:26:56.074Z,95.94
2023-01-01T04:27:59.114Z,95.58
2023-01-01T04:29:02.160Z,95.24
2023-01-01T04:30:07.270Z,95.40
2023-01-01T04:31:12.023Z,95.57
2023-01-01T04:32:15.167Z,95.69
2023-01-01T04:33:17.970Z,95.54
2023-01-01T04:34:21.006Z,95.54
2023-01-01T04:35:23.972Z,95.63
2023-01-01T04:36:27.721Z,95.78
2023-01-01T04:37:30.808Z,95.76
2023-01-01T04:38:38.652Z,95.69
2023-01-01T04:39:42.115Z,95.67
2023-01-01T04:40:48.620Z,95.31
2023-01-01T04:41:51.593Z,95.04
2023-01-01T04:42:54.732Z,95.17
2023-01-01T04:43:57.779Z,95.25
2023-01-01T04:45:00.927Z,95.44
2023-01-01T04:46:05.093Z,95.35
2023-01-01T04:47:08.451Z,95.16
2023-01-01T04:48:11.739Z,95.26
2023-01-01T04:49:14.772Z,95.37
2023-01-01T04:50:18.092Z,95.54
2023-01-01T04:51:25.689Z,95.73
2023-01-01T04:52:28.723Z,95.84
2023-01-01T04:53:35.340Z,95.86
2023-01-01T04:54:38.221Z,95.65
2023-01-01T04:55:41.279Z,95.60
2023-01-01T04:56:44.699Z,95.76
2023-01-01T04:57:48.070Z,95.86
2023-01-01T04:58:51.101Z,95.82
2023-01-01T04:59:55.682Z,95.74
2023-01-01T05:00:58.730Z,95.70
2023-01-01T05:02:01.993Z,95.76
2023-01-01T05:03:05.043Z,95.86
2023-01-01T05:04:08.094Z,95.92
2023-01-01T05:05:11.218Z,96.05
2023-01-01T05:06:14.984Z,96.21
2023-01-01T05:07:18.385Z,96.33
2023-01-01T05:08:21.377Z,96.50
2023-01-01T05:09:24.385Z,96.62
2023-01-01T05:10:27.340Z,96.75
2023-01-01T05:11:30.664Z,96.91
2023-01-01T05:12:34.706Z,97.17
2023-01-01T05:13:42.448Z,97.35
2023-01-01T05:14:45.360Z,97.88
2023-01-01T05:15:48.456Z,98.20
2023-01-01T05:16:53.032Z,98.35
2023-01-01T05:17:59.593Z,98.46
2023-01-01T05:19:02.966Z,98.54
2023-01-01T05:20:06.266Z,98.63
2023-01-01T05:21:13.565Z,98.70
2023-01-01T05:22:16.496Z,98.68
2023-01-01T05:23:19.508Z,98.77
2023-01-01T05:24:22.499Z,98.95
2023-01-01T05:25:25.553Z,99.02
2023-01-01T05:26:31.598Z,99.12
2023-01-01T05:27:34.678Z,99.14
2023-01-01T05:28:38.696Z,99.23
2023-01-01T05:29:42.973Z,99.43
2023-01-01T05:30:46.010Z,99.78
2023-01-01T05:31:49.198Z,100.00
2023-01-01T05:32:56.198Z,100.00
2023-01-01T05:35:04.629Z,100.00
2023-01-01T05:36:10.521Z,100.00
2023-01-01T05:37:13.510Z,100.00
2023-01-01T05:38:16.471Z,100.00
2023-01-01T05:39:19.536Z,100.00
2023-01-01T05:40:23.213Z,100.00
2023-01-01T05:41:26.702Z,100.00
2023-01-01T05:42:29.620Z,99.94
2023-01-01T05:43:32.662Z,99.85
2023-01-01T05:44:35.657Z,99.59
2023-01-01T05:45:38.685Z,99.35
2023-01-01T05:46:41.857Z,99.25
2023-01-01T05:47:44.745Z,99.34
2023-01-01T05:48:48.184Z,99.47
2023-01-01T05:49:51.800Z,99.48
2023-01-01T05:50:55.216Z,99.61
2023-01-01T05:51:58.233Z,99.78
2023-01-01T05:53:01.133Z,100.00
2023-01-01T05:54:04.252Z,100.00
2023-01-01T05:55:07.622Z,100.00
2023-01-01T05:56:11.802Z,100.00
2023-01-01T05:57:14.741Z,100.00
2023-01-01T05:58:17.821Z,100.00
2023-01-01T05:59:20.811Z,100.00
2023-01-01T06:00:24.369Z,99.52
2023-01-01T06:01:31.902Z,99.10
2023-01-01T06:02:36.106Z,98.96
2023-01-01T06:03:40.238Z,99.29
2023-01-01T06:04:43.400Z,99.29
2023-01-01T06:05:46.455Z,99.24
2023-01-01T06:06:49.414Z,99.23
2023-01-01T06:07:52.612Z,99.27
2023-01-01T06:09:00.886Z,99.51
2023-01-01T06:10:04.350Z,99.55
2023-01-01T06:11:10.666Z,99.71
2023-01-01T06:12:13.665Z,100.00
2023-01-01T06:13:19.632Z,100.00
2023-01-01T06:14:22.538Z,100.00
2023-01-01T06:15:28.860Z,100.00
2023-01-01T06:16:32.387Z,100.00
2023-01-01T06:17:35.448Z,100.00
2023-01-01T06:18:39.048Z,100.00
2023-01-01T06:19:42.111Z,100.00
2023-01-01T06:20:46.463Z,100.00
2023-01-01T06:21:49.330Z,100.00
2023-01-01T06:22:53.457Z,100.00
2023-01-01T06:24:01.111Z,100.00
2023-01-01T06:25:04.378Z,100.00
2023-01-01T06:26:14.940Z,100.00
2023-01-01T06:27:17.939Z,100.00
2023-01-01T06:28:20.865Z,100.00
2023-01-01T06:29:24.210Z,100.00
2023-01-01T06:30:27.456Z,100.00
2023-01-01T06:31:35.387Z,100.00
2023-01-01T06:32:41.513Z,100.00
2023-01-01T06:33:45.260Z,100.00
2023-01-01T06:34:48.241Z,100.00
2023-01-01T06:35:51.362Z,100.00
2023-01-01T06:36:54.358Z,100.00
2023-01-01T06:37:59.984Z,100.00
2023-01-01T06:39:03.851Z,100.00
2023-01-01T06:40:07.552Z,100.00
2023-01-01T06:41:16.222Z,100.00
2023-01-01T06:42:19.217Z,100.00
2023-01-01T06:43:22.259Z,100.00
2023-01-01T06:44:25.260Z,100.00
2023-01-01T06:45:28.334Z,100.00
2023-01-01T06:46:34.189Z,100.00
2023-01-01T06:47:37.629Z,100.00
2023-01-01T06:48:40.775Z,100.00
2023-01-01T06:49:43.654Z,100.00
2023-01-01T06:50:46.588Z,100.00
2023-01-01T06:51:49.570Z,100.00
2023-01-01T06:52:52.539Z,100.00
2023-01-01T06:53:55.694Z,100.00
2023-01-01T06:54:59.126Z,100.00
2023-01-01T06:56:02.624Z,100.00
2023-01-01T06:57:05.803Z,100.00
2023-01-01T06:58:10.109Z,100.00
2023-01-01T06:59:13.419Z,100.00
2023-01-01T07:00:18.496Z,100.00
2023-01-01T07:01:24.840Z,100.00
2023-01-01T07:02:28.252Z,100.00
2023-01-01T07:03:31.285Z,100.00
2023-01-01T07:04:34.191Z,100.00
2023-01-01T07:05:40.532Z,100.00
2023-01-01T07:06:45.739Z,100.00
2023-01-01T07:07:48.657Z,100.00
2023-01-01T07:08:52.408Z,100.00
2023-01-01T07:09:55.339Z,100.00
2023-01-01T07:10:58.426Z,100.00
2023-01-01T07:12:01.423Z,100.00
2023-01-01T07:13:04.535Z,100.00
2023-01-01T07:14:07.459Z,100.00
2023-01-01T07:15:10.856Z,100.00
2023-01-01T07:16:14.598Z,100.00
2023-01-01T07:17:17.725Z,100.00
2023-01-01T07:18:22.465Z,100.00
2023-01-01T07:19:25.592Z,100.00
2023-01-01T07:20:28.546Z,100.00
2023-01-01T07:21:38.416Z,100.00
2023-01-01T07:22:41.698Z,100.00
2023-01-01T07:23:44.538Z,100.00
2023-01-01T07:24:48.858Z,100.00
2023-01-01T07:25:53.213Z,100.00
2023-01-01T07:26:59.667Z,100.00
2023-01-01T07:28:02.759Z,100.00
2023-01-01T07:29:08.150Z,100.00
2023-01-01T07:30:11.744Z,100.00
2023-01-01T07:31:14.754Z,100.00
2023-01-01T07:32:17.814Z,100.00
2023-01-01T07:33:23.002Z,100.00
2023-01-01T07:34:25.957Z,100.00
2023-01-01T07:35:28.827Z,100.00
2023-01-01T07:36:32.032Z,100.00
2023-01-01T07:37:35.293Z,100.00
2023-01-01T07:38:38.557Z,100.00
2023-01-01T07:39:41.556Z,100.00
2023-01-01T07:40:44.631Z,100.00
2023-01-01T07:41:51.512Z,100.00
2023-01-01T07:42:54.444Z,100.00
2023-01-01T07:43:57.863Z,100.00
2023-01-01T07:45:00.849Z,100.00
2023-01-01T07:46:04.158Z,99.25
2023-01-01T07:47:20.969Z,99.08
2023-01-01T07:48:25.414Z,98.85
2023-01-01T07:49:28.695Z,98.89
2023-01-01T07:50:33.363Z,98.90
2023-01-01T07:51:39.629Z,98.97
2023-01-01T07:52:46.162Z,98.89
2023-01-01T07:53:49.377Z,96.95
2023-01-01T07:54:52.276Z,96.24
2023-01-01T07:55:55.168Z,95.89
2023-01-01T07:56:58.191Z,95.36
2023-01-01T07:58:01.726Z,95.09
2023-01-01T07:59:05.685Z,95.01
2023-01-01T08:00:10.877Z,94.84
2023-01-01T08:01:15.211Z,95.02
2023-01-01T08:02:18.484Z,94.97
2023-01-01T08:03:21.502Z,95.10
2023-01-01T08:04:24.495Z,95.53
2023-01-01T08:05:27.478Z,95.75
2023-01-01T08:06:33.457Z,96.15
2023-01-01T08:07:37.713Z,96.41
2023-01-01T08:08:41.647Z,96.67
2023-01-01T08:09:44.664Z,96.85
2023-01-01T08:10:48.073Z,96.86
2023-01-01T08:11:53.618Z,97.08
2023-01-01T08:13:04.846Z,97.25
2023-01-01T08:14:07.801Z,97.38
2023-01-01T08:15:11.498Z,97.42
2023-01-01T08:16:14.494Z,97.28
2023-01-01T08:17:18.160Z,97.26
2023-01-01T08:18:21.925Z,97.20
2023-01-01T08:19:25.005Z,97.31
2023-01-01T08:20:29.538Z,97.43
2023-01-01T08:21:32.634Z,97.52
2023-01-01T08:22:35.786Z,97.55
2023-01-01T08:23:38.865Z,97.51
2023-01-01T08:24:42.037Z,97.50
2023-01-01T08:25:44.909Z,97.54
2023-01-01T08:26:49.762Z,97.61
2023-01-01T08:27:52.931Z,97.63
2023-01-01T08:28:57.544Z,97.63
2023-01-01T08:30:00.661Z,97.62
2023-01-01T08:31:03.801Z,97.60
2023-01-01T08:32:06.851Z,97.65
2023-01-01T08:33:10.026Z,97.57
2023-01-01T08:34:12.957Z,97.64
2023-01-01T08:35:16.043Z,97.71
2023-01-01T08:36:21.026Z,97.68
2023-01-01T08:37:24.540Z,97.74
2023-01-01T08:38:27.851Z,97.74
2023-01-01T08:39:30.893Z,97.77
2023-01-01T08:40:33.894Z,97.47
2023-01-01T08:41:37.342Z,97.30
2023-01-01T08:42:40.472Z,97.33
2023-01-01T08:43:43.540Z,97.48
2023-01-01T08:44:47.409Z,97.55
2023-01-01T08:45:50.469Z,97.49
2023-01-01T08:46:53.964Z,97.36
2023-01-01T08:47:56.976Z,97.36
2023-01-01T08:49:00.016Z,97.39
2023-01-01T08:50:03.183Z,97.41
2023-01-01T08:51:06.670Z,97.41
2023-01-01T08:52:10.139Z,97.31
2023-01-01T08:53:13.497Z,96.98
2023-01-01T08:54:16.491Z,96.66
2023-01-01T08:55:19.446Z,96.39
2023-01-01T08:56:22.530Z,96.28
2023-01-01T08:57:26.421Z,96.22
2023-01-01T08:58:29.947Z,95.98
2023-01-01T08:59:33.273Z,95.03
2023-01-01T09:00:40.955Z,94.70
2023-01-01T09:01:44.091Z,95.11
2023-01-01T09:02:47.260Z,95.24
2023-01-01T09:03:50.627Z,94.94
2023-01-01T09:04:53.870Z,94.84
2023-01-01T09:05:56.997Z,94.79
2023-01-01T09:06:59.968Z,94.95
2023-01-01T09:08:03.110Z,95.07
2023-01-01T09:09:05.970Z,94.81
2023-01-01T09:10:09.721Z,94.69
2023-01-01T09:11:28.235Z,94.86
2023-01-01T09:12:31.753Z,94.54
2023-01-01T09:13:34.735Z,94.68
2023-01-01T09:14:37.874Z,94.56
2023-01-01T09:15:43.205Z,94.46
2023-01-01T09:16:46.285Z,94.70
2023-01-01T09:17:49.294Z,94.47
2023-01-01T09:18:52.791Z,94.47
2023-01-01T09:19:56.126Z,94.57
2023-01-01T09:20:59.110Z,94.62
2023-01-01T09:22:02.369Z,94.66
2023-01-01T09:23:06.792Z,94.81
2023-01-01T09:24:09.712Z,94.97
2023-01-01T09:25:12.780Z,94.96
2023-01-01T09:26:15.711Z,94.95
2023-01-01T09:27:18.716Z,94.93
2023-01-01T09:28:25.671Z,94.81
2023-01-01T09:29:29.548Z,94.73
2023-01-01T09:30:33.036Z,94.87
2023-01-01T09:31:36.088Z,94.84
2023-01-01T09:32:39.354Z,94.90
2023-01-01T09:33:42.591Z,94.99
2023-01-01T09:34:51.991Z,95.07
2023-01-01T09:35:55.474Z,95.23
2023-01-01T09:36:58.444Z,95.07
2023-01-01T09:38:01.460Z,95.29
2023-01-01T09:39:04.634Z,95.43
2023-01-01T09:40:09.499Z,95.70
2023-01-01T09:41:40.550Z,95.80
2023-01-01T09:42:48.969Z,95.87
2023-01-01T09:44:30.457Z,95.91
2023-01-01T09:45:44.968Z,95.80
2023-01-01T09:46:49.074Z,95.85
2023-01-01T09:48:06.851Z,95.93
2023-01-01T09:49:19.279Z,95.93
2023-01-01T09:50:28.286Z,95.98
2023-01-01T09:51:39.901Z,96.09
2023-01-01T09:53:01.628Z,96.18
2023-01-01T09:54:30.121Z,95.96
2023-01-01T09:55:53.200Z,95.85
2023-01-01T09:57:00.008Z,95.70
2023-01-01T09:58:03.007Z,95.75
2023-01-01T09:59:09.045Z,95.93
2023-01-01T10:00:17.491Z,96.06
2023-01-01T10:01:26.477Z,95.73
2023-01-01T10:02:51.721Z,95.16
2023-01-01T10:04:15.134Z,95.15
2023-01-01T10:05:43.219Z,95.09
2023-01-01T10:07:12.268Z,94.99
2023-01-01T10:08:23.600Z,95.03
2023-01-01T10:09:41.365Z,94.85
2023-01-01T10:11:16.363Z,94.37
2023-01-01T10:12:57.544Z,94.39
2023-01-01T10:14:05.988Z,94.56
2023-01-01T10:15:24.053Z,94.57
2023-01-01T10:16:49.180Z,94.60
2023-01-01T10:17:57.960Z,94.64
2023-01-01T10:19:20.778Z,94.70
2023-01-01T10:20:30.830Z,94.48
2023-01-01T10:21:45.141Z,94.53
2023-01-01T10:22:56.060Z,94.52
2023-01-01T10:24:28.063Z,94.40
2023-01-01T10:25:35.214Z,94.10
2023-01-01T10:26:39.960Z,93.95
2023-01-01T10:27:59.384Z,93.67
2023-01-01T10:29:32.339Z,93.93
2023-01-01T10:30:35.451Z,94.19
2023-01-01T10:31:51.155Z,94.08
2023-01-01T10:32:56.451Z,94.03
2023-01-01T10:34:06.775Z,94.06
2023-01-01T10:35:21.916Z,94.08
2023-01-01T10:36:31.438Z,93.97
2023-01-01T10:37:37.916Z,93.73
2023-01-01T10:38:41.295Z,93.30
2023-01-01T10:39:46.967Z,93.34
2023-01-01T10:40:59.723Z,93.35
2023-01-01T10:42:03.835Z,93.21
2023-01-01T10:43:11.715Z,92.78
2023-01-01T10:44:19.053Z,92.41
2023-01-01T10:45:39.016Z,92.04
2023-01-01T10:46:48.135Z,91.96
2023-01-01T10:48:26.082Z,91.85
2023-01-01T10:49:29.042Z,91.56
2023-01-01T10:50:51.993Z,90.94
2023-01-01T10:51:55.606Z,90.15
2023-01-01T10:52:58.537Z,89.85
2023-01-01T10:54:01.615Z,89.22
2023-01-01T10:55:05.736Z,88.92
2023-01-01T10:56:13.677Z,89.04
2023-01-01T10:57:27.677Z,88.90
2023-01-01T10:58:37.763Z,88.40
2023-01-01T10:59:45.534Z,88.13
2023-01-01T11:00:59.661Z,88.13
2023-01-01T11:02:29.215Z,87.43
2023-01-01T11:03:33.844Z,86.01
2023-01-01T11:04:36.801Z,85.80
2023-01-01T11:05:39.819Z,85.46
2023-01-01T11:06:45.473Z,85.35
2023-01-01T11:07:49.072Z,84.72
2023-01-01T11:08:58.135Z,84.64
2023-01-01T11:10:05.292Z,84.82
2023-01-01T11:13:10.227Z,84.88
2023-01-01T11:14:25.790Z,84.59
2023-01-01T11:15:34.906Z,84.23
2023-01-01T11:16:40.720Z,83.66
2023-01-01T11:17:44.095Z,83.45
2023-01-01T11:18:49.593Z,83.48
2023-01-01T11:19:59.782Z,82.69
2023-01-01T11:21:07.714Z,81.45
2023-01-01T11:22:44.209Z,81.85
2023-01-01T11:23:47.583Z,82.37
2023-01-01T11:25:01.446Z,82.16
2023-01-01T11:26:27.286Z,80.43
2023-01-01T11:27:30.386Z,79.99
2023-01-01T11:28:36.282Z,79.29
2023-01-01T11:29:39.139Z,80.08
2023-01-01T11:30:43.051Z,80.31
2023-01-01T11:31:47.896Z,80.48
2023-01-01T11:32:56.376Z,79.35
2023-01-01T11:33:59.433Z,79.96
2023-01-01T11:35:08.255Z,80.27
2023-01-01T11:36:11.908Z,80.63
2023-01-01T11:37:14.811Z,81.04
2023-01-01T11:38:29.605Z,81.11
2023-01-01T11:39:37.536Z,80.27
2023-01-01T11:40:47.497Z,79.81
2023-01-01T11:41:52.858Z,80.35
2023-01-01T11:43:02.273Z,80.61
2023-01-01T11:44:05.367Z,80.88
2023-01-01T11:45:21.629Z,80.58
2023-01-01T11:46:25.427Z,80.57
2023-01-01T11:47:37.102Z,80.77
2023-01-01T11:48:44.109Z,80.70
2023-01-01T11:49:54.243Z,80.81
2023-01-01T11:51:03.605Z,81.23
2023-01-01T11:52:39.185Z,81.31
2023-01-01T11:53:42.387Z,81.72
2023-01-01T11:54:46.714Z,81.83
2023-01-01T11:55:56.541Z,81.99
2023-01-01T11:57:18.476Z,82.07
2023-01-01T11:58:47.792Z,81.46
2023-01-01T12:00:04.520Z,81.44
2023-01-01T12:01:11.989Z,81.62
2023-01-01T12:02:43.152Z,81.88
2023-01-01T12:03:54.567Z,81.81
2023-01-01T12:05:15.191Z,81.63
2023-01-01T12:06:42.122Z,81.86
2023-01-01T12:07:45.835Z,81.88
2023-01-01T12:09:18.256Z,82.13
2023-01-01T12:10:29.664Z,83.00
2023-01-01T12:11:42.184Z,83.24
2023-01-01T12:13:04.504Z,83.30
2023-01-01T12:14:35.754Z,83.47
2023-01-01T12:16:20.273Z,83.71
2023-01-01T12:17:26.486Z,83.62
2023-01-01T12:18:37.859Z,82.59
2023-01-01T12:19:48.703Z,81.73
2023-01-01T12:21:17.976Z,82.23
2023-01-01T12:22:21.199Z,82.52
2023-01-01T12:23:24.468Z,82.80
2023-01-01T12:24:35.543Z,82.64
2023-01-01T12:25:44.244Z,82.57
2023-01-01T12:27:10.592Z,82.82
2023-01-01T12:28:30.418Z,83.33
2023-01-01T12:29:57.827Z,83.34
2023-01-01T12:31:32.846Z,82.87
2023-01-01T12:32:50.065Z,82.74
2023-01-01T12:34:15.003Z,83.45
2023-01-01T12:35:39.083Z,83.18
2023-01-01T12:36:52.029Z,82.55
2023-01-01T12:38:16.293Z,82.44
2023-01-01T12:39:31.772Z,82.38
2023-01-01T12:40:49.387Z,82.29
2023-01-01T12:42:00.006Z,81.78
2023-01-01T12:43:17.145Z,81.57
2023-01-01T12:44:19.927Z,81.57
2023-01-01T12:45:51.652Z,81.31
2023-01-01T12:47:08.588Z,80.45
2023-01-01T12:48:36.967Z,80.90
2023-01-01T12:49:47.778Z,81.35
2023-01-01T12:51:16.462Z,81.51
2023-01-01T12:52:52.494Z,81.65
2023-01-01T12:54:33.098Z,81.22
2023-01-01T12:56:19.251Z,81.10
2023-01-01T12:57:44.038Z,81.71
2023-01-01T12:59:17.461Z,81.78
2023-01-01T13:00:21.256Z,81.56
2023-01-01T13:01:33.590Z,81.33
2023-01-01T13:02:50.497Z,81.41
2023-01-01T13:04:03.658Z,81.54
2023-01-01T13:05:29.676Z,81.86
2023-01-01T13:06:41.493Z,81.36
2023-01-01T13:07:49.253Z,81.13
2023-01-01T13:09:00.242Z,81.40
2023-01-01T13:10:20.824Z,81.81
2023-01-01T13:11:27.021Z,82.12
2023-01-01T13:12:32.045Z,82.19
2023-01-01T13:13:35.175Z,81.54
2023-01-01T13:14:46.428Z,81.42
2023-01-01T13:15:55.769Z,81.83
2023-01-01T13:16:58.898Z,82.23
2023-01-01T13:18:05.957Z,81.88
2023-01-01T13:19:41.262Z,82.28
2023-01-01T13:21:21.208Z,81.77
2023-01-01T13:22:30.707Z,80.85
2023-01-01T13:23:36.553Z,80.44
2023-01-01T13:24:40.715Z,80.87
2023-01-01T13:25:43.607Z,80.63
2023-01-01T13:26:47.270Z,80.74
2023-01-01T13:28:03.687Z,81.12
2023-01-01T13:29:09.888Z,81.09
2023-01-01T13:30:44.214Z,81.57
2023-01-01T13:31:47.767Z,81.73
2023-01-01T13:33:37.079Z,81.66
2023-01-01T13:35:00.418Z,81.89
2023-01-01T13:36:09.435Z,82.17
2023-01-01T13:37:19.413Z,81.61
2023-01-01T13:38:48.047Z,81.82
2023-01-01T13:39:52.348Z,82.21
2023-01-01T13:40:55.365Z,81.55
2023-01-01T13:41:58.269Z,81.54
2023-01-01T13:43:04.583Z,81.84
2023-01-01T13:44:07.471Z,81.64
2023-01-01T13:46:00.619Z,81.04
2023-01-01T13:46:44.944Z,81.75
2023-01-01T13:48:15.788Z,81.98
2023-01-01T13:49:41.549Z,82.46
2023-01-01T13:51:03.508Z,82.54
2023-01-01T13:52:18.251Z,81.87
2023-01-01T13:53:36.113Z,81.97
2023-01-01T13:54:54.333Z,82.32
2023-01-01T13:56:08.789Z,82.05
2023-01-01T13:57:49.234Z,82.50
2023-01-01T13:59:23.631Z,83.12
2023-01-01T14:00:47.976Z,83.12
2023-01-01T14:01:58.502Z,83.33
2023-01-01T14:03:09.065Z,83.38
2023-01-01T14:04:29.499Z,83.44
2023-01-01T14:05:34.945Z,83.49
2023-01-01T14:06:43.334Z,83.83
2023-01-01T14:07:56.145Z,84.08
2023-01-01T14:09:07.115Z,84.24
2023-01-01T14:10:22.241Z,84.32
2023-01-01T14:11:25.551Z,84.25
2023-01-01T14:12:29.344Z,84.45
2023-01-01T14:13:44.724Z,84.73
2023-01-01T14:14:48.684Z,84.53
2023-01-01T14:15:57.866Z,84.25
2023-01-01T14:17:06.202Z,84.54
2023-01-01T14:18:16.053Z,84.87
2023-01-01T14:19:20.729Z,85.00
2023-01-01T14:20:28.623Z,84.98
2023-01-01T14:21:34.785Z,84.85
2023-01-01T14:22:37.712Z,85.07
2023-01-01T14:23:51.745Z,85.28
2023-01-01T14:24:54.898Z,85.42
2023-01-01T14:26:00.528Z,85.58
2023-01-01T14:27:06.045Z,85.49
2023-01-01T14:28:17.382Z,85.30
2023-01-01T14:29:31.444Z,85.04
2023-01-01T14:30:34.955Z,85.10
2023-01-01T14:31:47.265Z,85.40
2023-01-01T14:32:58.093Z,85.64
2023-01-01T14:34:02.638Z,85.56
2023-01-01T14:35:15.879Z,85.59
2023-01-01T14:36:30.450Z,85.54
2023-01-01T14:37:33.384Z,85.11
2023-01-01T14:38:43.383Z,85.26
2023-01-01T14:39:46.340Z,85.30
2023-01-01T14:40:49.381Z,85.54
2023-01-01T14:41:53.459Z,85.59
2023-01-01T14:43:05.535Z,85.61
2023-01-01T14:44:15.676Z,85.70
2023-01-01T14:45:19.137Z,85.83
2023-01-01T14:46:27.219Z,86.02